sensor_id;sensor_type;location;lat;lon;timestamp;P1;durP1;ratioP1;P2;durP2;ratioP2
71187;SDS011;58893;53.130;8.158;2022-07-06T00:00:32;9.90;;;1.60;;
71187;SDS011;58893;53.130;8.158;2022-07-06T00:02:57;7.40;;;2.00;;
71187;SDS011;58893;53.130;8.158;2022-07-06T00:05:23;13.43;;;1.70;;
71187;SDS011;58893;53.130;8.158;2022-07-06T00:07:49;4.43;;;1.70;;
71187;SDS011;58893;53.130;8.158;2022-07-06T00:10:15;2.23;;;1.30;;
71187;SDS011;58893;53.130;8.158;2022-07-06T00:12:40;5.50;;;1.70;;
71187;SDS011;58893;53.130;8.158;2022-07-06T00:15:06;5.33;;;1.47;;
71187;SDS011;58893;53.130;8.158;2022-07-06T00:17:32;7.40;;;1.23;;
71187;SDS011;58893;53.130;8.158;2022-07-06T00:19:57;4.40;;;1.50;;
71187;SDS011;58893;53.130;8.158;2022-07-06T00:22:23;6.83;;;2.00;;
71187;SDS011;58893;53.130;8.158;2022-07-06T00:24:48;8.73;;;1.20;;
71187;SDS011;58893;53.130;8.158;2022-07-06T00:27:14;5.00;;;1.30;;
71187;SDS011;58893;53.130;8.158;2022-07-06T00:29:40;6.73;;;1.97;;
71187;SDS011;58893;53.130;8.158;2022-07-06T00:32:08;5.50;;;1.10;;
71187;SDS011;58893;53.130;8.158;2022-07-06T00:34:37;5.23;;;1.90;;
71187;SDS011;58893;53.130;8.158;2022-07-06T00:37:06;4.13;;;1.20;;
71187;SDS011;58893;53.130;8.158;2022-07-06T00:39:32;2.70;;;1.30;;
71187;SDS011;58893;53.130;8.158;2022-07-06T00:41:58;4.07;;;1.63;;
71187;SDS011;58893;53.130;8.158;2022-07-06T00:44:24;2.93;;;1.40;;
71187;SDS011;58893;53.130;8.158;2022-07-06T00:46:50;4.10;;;1.50;;
71187;SDS011;58893;53.130;8.158;2022-07-06T00:49:16;3.20;;;1.17;;
71187;SDS011;58893;53.130;8.158;2022-07-06T00:52:00;3.70;;;1.30;;
71187;SDS011;58893;53.130;8.158;2022-07-06T00:54:26;2.17;;;1.10;;
71187;SDS011;58893;53.130;8.158;2022-07-06T00:56:55;2.30;;;1.43;;
71187;SDS011;58893;53.130;8.158;2022-07-06T00:59:20;4.23;;;1.63;;
71187;SDS011;58893;53.130;8.158;2022-07-06T01:01:48;6.03;;;1.60;;
71187;SDS011;58893;53.130;8.158;2022-07-06T01:04:13;4.10;;;2.10;;
71187;SDS011;58893;53.130;8.158;2022-07-06T01:06:39;2.17;;;1.33;;
71187;SDS011;58893;53.130;8.158;2022-07-06T01:09:05;1.50;;;1.10;;
71187;SDS011;58893;53.130;8.158;2022-07-06T01:11:31;7.00;;;1.73;;
71187;SDS011;58893;53.130;8.158;2022-07-06T01:13:57;9.20;;;1.63;;
71187;SDS011;58893;53.130;8.158;2022-07-06T01:16:25;7.23;;;1.50;;
71187;SDS011;58893;53.130;8.158;2022-07-06T01:18:50;6.73;;;1.53;;
71187;SDS011;58893;53.130;8.158;2022-07-06T01:21:16;8.33;;;1.40;;
71187;SDS011;58893;53.130;8.158;2022-07-06T01:23:42;7.23;;;1.60;;
71187;SDS011;58893;53.130;8.158;2022-07-06T01:26:10;3.53;;;1.60;;
71187;SDS011;58893;53.130;8.158;2022-07-06T01:28:41;2.83;;;1.50;;
71187;SDS011;58893;53.130;8.158;2022-07-06T01:31:23;2.30;;;1.13;;
71187;SDS011;58893;53.130;8.158;2022-07-06T01:33:51;2.43;;;1.40;;
71187;SDS011;58893;53.130;8.158;2022-07-06T01:36:18;1.67;;;1.00;;
71187;SDS011;58893;53.130;8.158;2022-07-06T01:38:48;5.50;;;0.97;;
71187;SDS011;58893;53.130;8.158;2022-07-06T01:41:15;5.37;;;1.60;;
71187;SDS011;58893;53.130;8.158;2022-07-06T01:43:41;3.70;;;1.40;;
71187;SDS011;58893;53.130;8.158;2022-07-06T01:46:07;3.73;;;1.20;;
71187;SDS011;58893;53.130;8.158;2022-07-06T01:48:33;9.90;;;1.57;;
71187;SDS011;58893;53.130;8.158;2022-07-06T01:50:59;3.70;;;1.73;;
71187;SDS011;58893;53.130;8.158;2022-07-06T01:53:25;4.73;;;1.60;;
71187;SDS011;58893;53.130;8.158;2022-07-06T01:55:50;4.40;;;1.20;;
71187;SDS011;58893;53.130;8.158;2022-07-06T01:58:16;5.53;;;1.40;;
71187;SDS011;58893;53.130;8.158;2022-07-06T02:00:42;4.23;;;1.47;;
71187;SDS011;58893;53.130;8.158;2022-07-06T02:03:08;6.90;;;1.80;;
71187;SDS011;58893;53.130;8.158;2022-07-06T02:05:33;8.33;;;1.43;;
71187;SDS011;58893;53.130;8.158;2022-07-06T02:07:59;3.93;;;1.37;;
71187;SDS011;58893;53.130;8.158;2022-07-06T02:10:25;2.23;;;1.40;;
71187;SDS011;58893;53.130;8.158;2022-07-06T02:12:50;4.13;;;1.53;;
71187;SDS011;58893;53.130;8.158;2022-07-06T02:15:16;8.43;;;1.80;;
71187;SDS011;58893;53.130;8.158;2022-07-06T02:17:41;8.70;;;1.97;;
71187;SDS011;58893;53.130;8.158;2022-07-06T02:20:08;1.93;;;1.50;;
71187;SDS011;58893;53.130;8.158;2022-07-06T02:22:34;6.20;;;1.43;;
71187;SDS011;58893;53.130;8.158;2022-07-06T02:25:00;5.50;;;1.73;;
71187;SDS011;58893;53.130;8.158;2022-07-06T02:27:25;6.13;;;1.93;;
71187;SDS011;58893;53.130;8.158;2022-07-06T02:29:51;3.50;;;1.37;;
71187;SDS011;58893;53.130;8.158;2022-07-06T02:32:17;6.43;;;1.40;;
71187;SDS011;58893;53.130;8.158;2022-07-06T02:34:42;4.77;;;1.70;;
71187;SDS011;58893;53.130;8.158;2022-07-06T02:37:08;11.83;;;2.00;;
71187;SDS011;58893;53.130;8.158;2022-07-06T02:39:34;3.70;;;1.80;;
71187;SDS011;58893;53.130;8.158;2022-07-06T02:42:00;6.90;;;2.37;;
71187;SDS011;58893;53.130;8.158;2022-07-06T02:44:25;5.50;;;1.53;;
71187;SDS011;58893;53.130;8.158;2022-07-06T02:46:51;4.70;;;1.47;;
71187;SDS011;58893;53.130;8.158;2022-07-06T02:49:16;3.13;;;1.40;;
71187;SDS011;58893;53.130;8.158;2022-07-06T02:51:42;7.27;;;1.97;;
71187;SDS011;58893;53.130;8.158;2022-07-06T02:54:08;6.33;;;1.80;;
71187;SDS011;58893;53.130;8.158;2022-07-06T02:56:33;9.00;;;2.00;;
71187;SDS011;58893;53.130;8.158;2022-07-06T02:58:59;5.20;;;1.90;;
71187;SDS011;58893;53.130;8.158;2022-07-06T03:01:25;2.17;;;1.40;;
71187;SDS011;58893;53.130;8.158;2022-07-06T03:03:51;3.00;;;1.40;;
71187;SDS011;58893;53.130;8.158;2022-07-06T03:06:16;4.13;;;1.90;;
71187;SDS011;58893;53.130;8.158;2022-07-06T03:08:42;4.13;;;1.60;;
71187;SDS011;58893;53.130;8.158;2022-07-06T03:11:08;2.37;;;1.57;;
71187;SDS011;58893;53.130;8.158;2022-07-06T03:13:34;2.73;;;1.47;;
71187;SDS011;58893;53.130;8.158;2022-07-06T03:16:00;12.07;;;2.00;;
71187;SDS011;58893;53.130;8.158;2022-07-06T03:18:26;3.30;;;1.87;;
71187;SDS011;58893;53.130;8.158;2022-07-06T03:20:51;7.27;;;2.27;;
71187;SDS011;58893;53.130;8.158;2022-07-06T03:23:17;2.83;;;1.60;;
71187;SDS011;58893;53.130;8.158;2022-07-06T03:25:42;5.77;;;1.90;;
71187;SDS011;58893;53.130;8.158;2022-07-06T03:28:08;5.13;;;2.10;;
71187;SDS011;58893;53.130;8.158;2022-07-06T03:30:34;6.80;;;2.00;;
71187;SDS011;58893;53.130;8.158;2022-07-06T03:32:59;7.70;;;2.33;;
71187;SDS011;58893;53.130;8.158;2022-07-06T03:35:25;7.20;;;1.47;;
71187;SDS011;58893;53.130;8.158;2022-07-06T03:37:51;2.80;;;2.00;;
71187;SDS011;58893;53.130;8.158;2022-07-06T03:40:16;3.00;;;1.50;;
71187;SDS011;58893;53.130;8.158;2022-07-06T03:42:42;1.73;;;1.37;;
71187;SDS011;58893;53.130;8.158;2022-07-06T03:45:08;3.47;;;1.50;;
71187;SDS011;58893;53.130;8.158;2022-07-06T03:47:34;5.43;;;1.90;;
71187;SDS011;58893;53.130;8.158;2022-07-06T03:49:59;5.00;;;2.10;;
71187;SDS011;58893;53.130;8.158;2022-07-06T03:52:25;3.83;;;1.53;;
71187;SDS011;58893;53.130;8.158;2022-07-06T03:54:54;11.73;;;1.87;;
71187;SDS011;58893;53.130;8.158;2022-07-06T03:57:20;18.20;;;2.00;;
71187;SDS011;58893;53.130;8.158;2022-07-06T03:59:46;2.57;;;1.70;;
71187;SDS011;58893;53.130;8.158;2022-07-06T04:02:12;4.23;;;1.80;;
71187;SDS011;58893;53.130;8.158;2022-07-06T04:04:38;2.90;;;1.70;;
71187;SDS011;58893;53.130;8.158;2022-07-06T04:07:03;6.10;;;1.67;;
71187;SDS011;58893;53.130;8.158;2022-07-06T04:09:29;5.90;;;1.67;;
71187;SDS011;58893;53.130;8.158;2022-07-06T04:11:55;3.60;;;1.77;;
71187;SDS011;58893;53.130;8.158;2022-07-06T04:14:21;8.43;;;2.40;;
71187;SDS011;58893;53.130;8.158;2022-07-06T04:16:46;4.63;;;1.93;;
71187;SDS011;58893;53.130;8.158;2022-07-06T04:19:12;1.87;;;1.50;;
71187;SDS011;58893;53.130;8.158;2022-07-06T04:21:37;10.60;;;1.60;;
71187;SDS011;58893;53.130;8.158;2022-07-06T04:24:03;3.47;;;1.73;;
71187;SDS011;58893;53.130;8.158;2022-07-06T04:26:29;5.77;;;1.93;;
71187;SDS011;58893;53.130;8.158;2022-07-06T04:28:55;7.73;;;2.13;;
71187;SDS011;58893;53.130;8.158;2022-07-06T04:31:21;4.73;;;1.40;;
71187;SDS011;58893;53.130;8.158;2022-07-06T04:33:46;4.73;;;1.83;;
71187;SDS011;58893;53.130;8.158;2022-07-06T04:36:12;2.40;;;1.53;;
71187;SDS011;58893;53.130;8.158;2022-07-06T04:38:38;3.23;;;2.00;;
71187;SDS011;58893;53.130;8.158;2022-07-06T04:41:03;13.87;;;1.50;;
71187;SDS011;58893;53.130;8.158;2022-07-06T04:43:29;5.13;;;1.87;;
71187;SDS011;58893;53.130;8.158;2022-07-06T04:45:54;4.83;;;1.57;;
71187;SDS011;58893;53.130;8.158;2022-07-06T04:48:20;7.73;;;1.90;;
71187;SDS011;58893;53.130;8.158;2022-07-06T04:50:46;6.63;;;1.80;;
71187;SDS011;58893;53.130;8.158;2022-07-06T04:53:11;11.43;;;1.70;;
71187;SDS011;58893;53.130;8.158;2022-07-06T04:55:37;5.77;;;1.20;;
71187;SDS011;58893;53.130;8.158;2022-07-06T04:58:03;3.50;;;1.60;;
71187;SDS011;58893;53.130;8.158;2022-07-06T05:00:28;11.73;;;1.97;;
71187;SDS011;58893;53.130;8.158;2022-07-06T05:02:54;7.30;;;1.60;;
71187;SDS011;58893;53.130;8.158;2022-07-06T05:05:20;3.83;;;1.23;;
71187;SDS011;58893;53.130;8.158;2022-07-06T05:07:45;4.10;;;1.40;;
71187;SDS011;58893;53.130;8.158;2022-07-06T05:10:11;7.60;;;1.77;;
71187;SDS011;58893;53.130;8.158;2022-07-06T05:12:37;2.90;;;1.50;;
71187;SDS011;58893;53.130;8.158;2022-07-06T05:15:03;4.70;;;1.60;;
71187;SDS011;58893;53.130;8.158;2022-07-06T05:17:30;3.67;;;1.53;;
71187;SDS011;58893;53.130;8.158;2022-07-06T05:19:55;1.47;;;1.20;;
71187;SDS011;58893;53.130;8.158;2022-07-06T05:22:21;4.20;;;1.47;;
71187;SDS011;58893;53.130;8.158;2022-07-06T05:24:47;6.80;;;1.70;;
71187;SDS011;58893;53.130;8.158;2022-07-06T05:27:12;4.13;;;1.30;;
71187;SDS011;58893;53.130;8.158;2022-07-06T05:29:38;2.07;;;1.60;;
71187;SDS011;58893;53.130;8.158;2022-07-06T05:32:03;5.53;;;1.30;;
71187;SDS011;58893;53.130;8.158;2022-07-06T05:34:29;9.93;;;1.63;;
71187;SDS011;58893;53.130;8.158;2022-07-06T05:36:55;12.73;;;1.60;;
71187;SDS011;58893;53.130;8.158;2022-07-06T05:39:21;3.93;;;1.50;;
71187;SDS011;58893;53.130;8.158;2022-07-06T05:41:48;5.43;;;1.10;;
71187;SDS011;58893;53.130;8.158;2022-07-06T05:44:13;5.20;;;1.27;;
71187;SDS011;58893;53.130;8.158;2022-07-06T05:46:39;3.27;;;1.40;;
71187;SDS011;58893;53.130;8.158;2022-07-06T05:49:05;2.73;;;1.53;;
71187;SDS011;58893;53.130;8.158;2022-07-06T05:51:49;2.40;;;1.30;;
71187;SDS011;58893;53.130;8.158;2022-07-06T05:54:15;4.97;;;1.27;;
71187;SDS011;58893;53.130;8.158;2022-07-06T05:56:41;4.63;;;2.20;;
71187;SDS011;58893;53.130;8.158;2022-07-06T05:59:06;1.97;;;1.40;;
71187;SDS011;58893;53.130;8.158;2022-07-06T06:01:32;3.97;;;1.27;;
71187;SDS011;58893;53.130;8.158;2022-07-06T06:03:58;6.00;;;1.73;;
71187;SDS011;58893;53.130;8.158;2022-07-06T06:06:24;4.77;;;1.50;;
71187;SDS011;58893;53.130;8.158;2022-07-06T06:08:50;3.60;;;1.23;;
71187;SDS011;58893;53.130;8.158;2022-07-06T06:11:16;9.43;;;1.70;;
71187;SDS011;58893;53.130;8.158;2022-07-06T06:13:42;5.20;;;1.50;;
71187;SDS011;58893;53.130;8.158;2022-07-06T06:16:07;3.40;;;1.40;;
71187;SDS011;58893;53.130;8.158;2022-07-06T06:18:33;5.57;;;1.40;;
71187;SDS011;58893;53.130;8.158;2022-07-06T06:20:59;3.30;;;1.10;;
71187;SDS011;58893;53.130;8.158;2022-07-06T06:23:25;6.00;;;1.20;;
71187;SDS011;58893;53.130;8.158;2022-07-06T06:25:50;5.00;;;1.27;;
71187;SDS011;58893;53.130;8.158;2022-07-06T06:28:16;3.53;;;1.63;;
71187;SDS011;58893;53.130;8.158;2022-07-06T06:30:42;3.47;;;1.00;;
71187;SDS011;58893;53.130;8.158;2022-07-06T06:33:11;3.53;;;1.40;;
71187;SDS011;58893;53.130;8.158;2022-07-06T06:35:42;9.17;;;1.77;;
71187;SDS011;58893;53.130;8.158;2022-07-06T06:38:10;9.70;;;1.63;;
71187;SDS011;58893;53.130;8.158;2022-07-06T06:40:35;5.20;;;1.40;;
71187;SDS011;58893;53.130;8.158;2022-07-06T06:43:01;3.03;;;0.97;;
71187;SDS011;58893;53.130;8.158;2022-07-06T06:45:27;2.13;;;1.00;;
71187;SDS011;58893;53.130;8.158;2022-07-06T06:47:52;2.13;;;1.00;;
71187;SDS011;58893;53.130;8.158;2022-07-06T06:50:18;4.20;;;1.00;;
71187;SDS011;58893;53.130;8.158;2022-07-06T06:52:44;2.93;;;1.37;;
71187;SDS011;58893;53.130;8.158;2022-07-06T06:55:09;10.23;;;1.20;;
71187;SDS011;58893;53.130;8.158;2022-07-06T06:57:35;8.40;;;1.60;;
71187;SDS011;58893;53.130;8.158;2022-07-06T07:00:01;2.30;;;1.10;;
71187;SDS011;58893;53.130;8.158;2022-07-06T07:02:28;4.17;;;1.00;;
71187;SDS011;58893;53.130;8.158;2022-07-06T07:04:53;3.97;;;1.13;;
71187;SDS011;58893;53.130;8.158;2022-07-06T07:07:19;4.97;;;1.07;;
71187;SDS011;58893;53.130;8.158;2022-07-06T07:09:44;6.30;;;1.03;;
71187;SDS011;58893;53.130;8.158;2022-07-06T07:12:10;3.03;;;0.90;;
71187;SDS011;58893;53.130;8.158;2022-07-06T07:14:37;2.43;;;0.80;;
71187;SDS011;58893;53.130;8.158;2022-07-06T07:17:02;4.57;;;0.80;;
71187;SDS011;58893;53.130;8.158;2022-07-06T07:19:28;8.03;;;1.17;;
71187;SDS011;58893;53.130;8.158;2022-07-06T07:21:54;3.63;;;1.50;;
71187;SDS011;58893;53.130;8.158;2022-07-06T07:24:20;11.73;;;1.70;;
71187;SDS011;58893;53.130;8.158;2022-07-06T07:26:46;6.47;;;0.90;;
71187;SDS011;58893;53.130;8.158;2022-07-06T07:29:11;12.90;;;1.10;;
71187;SDS011;58893;53.130;8.158;2022-07-06T07:31:37;4.57;;;1.17;;
71187;SDS011;58893;53.130;8.158;2022-07-06T07:34:03;2.57;;;1.10;;
71187;SDS011;58893;53.130;8.158;2022-07-06T07:36:28;1.70;;;1.00;;
71187;SDS011;58893;53.130;8.158;2022-07-06T07:38:54;1.63;;;0.70;;
71187;SDS011;58893;53.130;8.158;2022-07-06T07:41:19;7.73;;;0.83;;
71187;SDS011;58893;53.130;8.158;2022-07-06T07:43:45;4.00;;;0.83;;
71187;SDS011;58893;53.130;8.158;2022-07-06T07:46:11;4.10;;;0.90;;
71187;SDS011;58893;53.130;8.158;2022-07-06T07:48:36;5.77;;;1.10;;
71187;SDS011;58893;53.130;8.158;2022-07-06T07:51:02;3.53;;;0.80;;
71187;SDS011;58893;53.130;8.158;2022-07-06T07:53:27;3.73;;;1.23;;
71187;SDS011;58893;53.130;8.158;2022-07-06T07:55:53;2.23;;;0.97;;
71187;SDS011;58893;53.130;8.158;2022-07-06T07:58:20;1.20;;;1.10;;
71187;SDS011;58893;53.130;8.158;2022-07-06T08:00:45;1.17;;;0.77;;
71187;SDS011;58893;53.130;8.158;2022-07-06T08:03:11;4.87;;;0.90;;
71187;SDS011;58893;53.130;8.158;2022-07-06T08:05:37;2.30;;;0.90;;
71187;SDS011;58893;53.130;8.158;2022-07-06T08:08:03;7.37;;;0.90;;
71187;SDS011;58893;53.130;8.158;2022-07-06T08:10:29;4.27;;;1.00;;
71187;SDS011;58893;53.130;8.158;2022-07-06T08:12:55;1.83;;;1.10;;
71187;SDS011;58893;53.130;8.158;2022-07-06T08:15:20;1.80;;;0.70;;
71187;SDS011;58893;53.130;8.158;2022-07-06T08:17:46;3.20;;;0.87;;
71187;SDS011;58893;53.130;8.158;2022-07-06T08:20:12;2.93;;;1.17;;
71187;SDS011;58893;53.130;8.158;2022-07-06T08:22:37;10.13;;;1.57;;
71187;SDS011;58893;53.130;8.158;2022-07-06T08:25:04;4.73;;;1.20;;
71187;SDS011;58893;53.130;8.158;2022-07-06T08:27:30;2.43;;;0.80;;
71187;SDS011;58893;53.130;8.158;2022-07-06T08:29:56;3.37;;;1.00;;
71187;SDS011;58893;53.130;8.158;2022-07-06T08:32:22;4.30;;;1.63;;
71187;SDS011;58893;53.130;8.158;2022-07-06T08:34:47;10.40;;;1.60;;
71187;SDS011;58893;53.130;8.158;2022-07-06T08:37:13;4.87;;;1.37;;
71187;SDS011;58893;53.130;8.158;2022-07-06T08:39:39;1.63;;;1.00;;
71187;SDS011;58893;53.130;8.158;2022-07-06T08:42:05;3.40;;;0.97;;
71187;SDS011;58893;53.130;8.158;2022-07-06T08:44:32;5.63;;;1.50;;
71187;SDS011;58893;53.130;8.158;2022-07-06T08:46:59;5.00;;;1.60;;
71187;SDS011;58893;53.130;8.158;2022-07-06T08:49:29;3.53;;;2.10;;
71187;SDS011;58893;53.130;8.158;2022-07-06T08:51:56;9.37;;;4.03;;
71187;SDS011;58893;53.130;8.158;2022-07-06T08:54:22;12.00;;;5.53;;
71187;SDS011;58893;53.130;8.158;2022-07-06T08:56:48;3.70;;;2.60;;
71187;SDS011;58893;53.130;8.158;2022-07-06T08:59:15;6.33;;;3.60;;
71187;SDS011;58893;53.130;8.158;2022-07-06T09:01:41;12.47;;;3.80;;
71187;SDS011;58893;53.130;8.158;2022-07-06T09:04:09;5.33;;;2.27;;
71187;SDS011;58893;53.130;8.158;2022-07-06T09:06:37;3.60;;;2.00;;
71187;SDS011;58893;53.130;8.158;2022-07-06T09:09:05;5.00;;;1.60;;
71187;SDS011;58893;53.130;8.158;2022-07-06T09:11:32;7.07;;;1.93;;
71187;SDS011;58893;53.130;8.158;2022-07-06T09:13:57;6.70;;;2.03;;
71187;SDS011;58893;53.130;8.158;2022-07-06T09:16:27;4.00;;;1.23;;
71187;SDS011;58893;53.130;8.158;2022-07-06T09:18:53;5.53;;;1.27;;
71187;SDS011;58893;53.130;8.158;2022-07-06T09:21:24;1.77;;;1.13;;
71187;SDS011;58893;53.130;8.158;2022-07-06T09:23:54;2.20;;;1.20;;
71187;SDS011;58893;53.130;8.158;2022-07-06T09:26:21;2.50;;;0.90;;
71187;SDS011;58893;53.130;8.158;2022-07-06T09:28:47;2.50;;;0.80;;
71187;SDS011;58893;53.130;8.158;2022-07-06T09:31:13;1.43;;;0.90;;
71187;SDS011;58893;53.130;8.158;2022-07-06T09:33:38;2.07;;;1.07;;
71187;SDS011;58893;53.130;8.158;2022-07-06T09:36:04;1.37;;;0.80;;
71187;SDS011;58893;53.130;8.158;2022-07-06T09:38:33;1.70;;;0.93;;
71187;SDS011;58893;53.130;8.158;2022-07-06T09:40:58;2.40;;;0.90;;
71187;SDS011;58893;53.130;8.158;2022-07-06T09:43:27;2.67;;;1.00;;
71187;SDS011;58893;53.130;8.158;2022-07-06T09:45:56;0.97;;;0.80;;
71187;SDS011;58893;53.130;8.158;2022-07-06T09:48:23;2.10;;;0.90;;
71187;SDS011;58893;53.130;8.158;2022-07-06T09:50:51;3.20;;;1.10;;
71187;SDS011;58893;53.130;8.158;2022-07-06T09:53:18;13.23;;;1.00;;
71187;SDS011;58893;53.130;8.158;2022-07-06T09:55:46;1.73;;;0.87;;
71187;SDS011;58893;53.130;8.158;2022-07-06T09:58:13;1.87;;;0.83;;
71187;SDS011;58893;53.130;8.158;2022-07-06T10:00:39;1.27;;;0.87;;
71187;SDS011;58893;53.130;8.158;2022-07-06T10:03:06;2.83;;;1.00;;
71187;SDS011;58893;53.130;8.158;2022-07-06T10:05:34;0.97;;;0.80;;
71187;SDS011;58893;53.130;8.158;2022-07-06T10:08:02;2.93;;;1.33;;
71187;SDS011;58893;53.130;8.158;2022-07-06T10:10:31;3.53;;;1.03;;
71187;SDS011;58893;53.130;8.158;2022-07-06T10:12:57;6.77;;;0.80;;
71187;SDS011;58893;53.130;8.158;2022-07-06T10:15:24;2.30;;;0.80;;
71187;SDS011;58893;53.130;8.158;2022-07-06T10:17:51;1.70;;;0.80;;
71187;SDS011;58893;53.130;8.158;2022-07-06T10:20:18;1.17;;;0.83;;
71187;SDS011;58893;53.130;8.158;2022-07-06T10:22:48;2.63;;;0.67;;
71187;SDS011;58893;53.130;8.158;2022-07-06T10:25:18;1.13;;;0.60;;
71187;SDS011;58893;53.130;8.158;2022-07-06T10:27:45;2.77;;;1.00;;
71187;SDS011;58893;53.130;8.158;2022-07-06T10:30:12;1.50;;;0.80;;
71187;SDS011;58893;53.130;8.158;2022-07-06T10:32:39;4.73;;;0.90;;
71187;SDS011;58893;53.130;8.158;2022-07-06T10:35:07;1.53;;;0.70;;
71187;SDS011;58893;53.130;8.158;2022-07-06T10:37:33;2.03;;;0.97;;
71187;SDS011;58893;53.130;8.158;2022-07-06T10:39:59;4.97;;;1.00;;
71187;SDS011;58893;53.130;8.158;2022-07-06T10:42:56;3.50;;;1.10;;
71187;SDS011;58893;53.130;8.158;2022-07-06T10:50:41;2.40;;;0.90;;
71187;SDS011;58893;53.130;8.158;2022-07-06T10:53:39;1.77;;;0.80;;
71187;SDS011;58893;53.130;8.158;2022-07-06T10:56:05;5.07;;;1.30;;
71187;SDS011;58893;53.130;8.158;2022-07-06T11:01:07;2.43;;;0.77;;
71187;SDS011;58893;53.130;8.158;2022-07-06T11:06:06;8.17;;;1.00;;
71187;SDS011;58893;53.130;8.158;2022-07-06T11:08:41;4.90;;;1.10;;
71187;SDS011;58893;53.130;8.158;2022-07-06T11:11:14;14.90;;;1.00;;
71187;SDS011;58893;53.130;8.158;2022-07-06T11:13:42;3.80;;;0.90;;
71187;SDS011;58893;53.130;8.158;2022-07-06T11:16:12;1.23;;;0.80;;
71187;SDS011;58893;53.130;8.158;2022-07-06T11:18:39;1.07;;;0.80;;
71187;SDS011;58893;53.130;8.158;2022-07-06T11:21:19;5.03;;;1.17;;
71187;SDS011;58893;53.130;8.158;2022-07-06T11:23:49;2.70;;;0.93;;
71187;SDS011;58893;53.130;8.158;2022-07-06T11:26:16;4.60;;;1.40;;
71187;SDS011;58893;53.130;8.158;2022-07-06T11:28:44;1.27;;;0.90;;
71187;SDS011;58893;53.130;8.158;2022-07-06T11:31:11;3.83;;;1.00;;
71187;SDS011;58893;53.130;8.158;2022-07-06T11:33:37;3.27;;;0.90;;
71187;SDS011;58893;53.130;8.158;2022-07-06T11:38:41;6.10;;;0.70;;
71187;SDS011;58893;53.130;8.158;2022-07-06T11:41:07;2.60;;;0.90;;
71187;SDS011;58893;53.130;8.158;2022-07-06T11:43:34;2.17;;;0.97;;
71187;SDS011;58893;53.130;8.158;2022-07-06T11:46:00;6.07;;;1.10;;
71187;SDS011;58893;53.130;8.158;2022-07-06T11:48:25;2.83;;;0.80;;
71187;SDS011;58893;53.130;8.158;2022-07-06T11:51:00;1.37;;;0.70;;
71187;SDS011;58893;53.130;8.158;2022-07-06T11:53:28;3.53;;;0.80;;
71187;SDS011;58893;53.130;8.158;2022-07-06T11:55:54;1.43;;;0.90;;
71187;SDS011;58893;53.130;8.158;2022-07-06T11:58:21;2.60;;;0.90;;
71187;SDS011;58893;53.130;8.158;2022-07-06T12:01:04;1.93;;;0.80;;
71187;SDS011;58893;53.130;8.158;2022-07-06T12:03:31;3.60;;;0.93;;
71187;SDS011;58893;53.130;8.158;2022-07-06T12:05:57;1.23;;;0.70;;
71187;SDS011;58893;53.130;8.158;2022-07-06T12:08:24;3.13;;;0.90;;
71187;SDS011;58893;53.130;8.158;2022-07-06T12:10:49;3.27;;;0.80;;
71187;SDS011;58893;53.130;8.158;2022-07-06T12:13:17;2.00;;;0.80;;
71187;SDS011;58893;53.130;8.158;2022-07-06T12:15:43;3.53;;;0.80;;
71187;SDS011;58893;53.130;8.158;2022-07-06T12:18:09;4.67;;;0.70;;
71187;SDS011;58893;53.130;8.158;2022-07-06T12:20:35;2.07;;;0.67;;
71187;SDS011;58893;53.130;8.158;2022-07-06T12:23:04;4.20;;;0.80;;
71187;SDS011;58893;53.130;8.158;2022-07-06T12:25:34;5.40;;;0.77;;
71187;SDS011;58893;53.130;8.158;2022-07-06T12:28:01;1.50;;;0.73;;
71187;SDS011;58893;53.130;8.158;2022-07-06T12:30:28;3.23;;;1.07;;
71187;SDS011;58893;53.130;8.158;2022-07-06T12:33:14;2.13;;;0.80;;
71187;SDS011;58893;53.130;8.158;2022-07-06T12:35:40;2.10;;;0.73;;
71187;SDS011;58893;53.130;8.158;2022-07-06T12:38:07;13.83;;;0.80;;
71187;SDS011;58893;53.130;8.158;2022-07-06T12:40:34;1.43;;;0.70;;
71187;SDS011;58893;53.130;8.158;2022-07-06T12:43:01;0.97;;;0.83;;
71187;SDS011;58893;53.130;8.158;2022-07-06T12:45:28;2.10;;;1.00;;
71187;SDS011;58893;53.130;8.158;2022-07-06T12:47:58;1.23;;;0.77;;
71187;SDS011;58893;53.130;8.158;2022-07-06T12:50:30;6.10;;;0.90;;
71187;SDS011;58893;53.130;8.158;2022-07-06T12:52:57;0.73;;;0.63;;
71187;SDS011;58893;53.130;8.158;2022-07-06T12:55:27;0.90;;;0.70;;
71187;SDS011;58893;53.130;8.158;2022-07-06T12:57:54;8.53;;;0.80;;
71187;SDS011;58893;53.130;8.158;2022-07-06T13:00:20;1.93;;;0.60;;
71187;SDS011;58893;53.130;8.158;2022-07-06T13:02:49;1.10;;;0.60;;
71187;SDS011;58893;53.130;8.158;2022-07-06T13:05:22;1.47;;;0.70;;
71187;SDS011;58893;53.130;8.158;2022-07-06T13:07:52;2.40;;;0.80;;
71187;SDS011;58893;53.130;8.158;2022-07-06T13:10:20;1.10;;;0.70;;
71187;SDS011;58893;53.130;8.158;2022-07-06T13:12:47;1.37;;;0.67;;
71187;SDS011;58893;53.130;8.158;2022-07-06T13:15:13;1.80;;;0.90;;
71187;SDS011;58893;53.130;8.158;2022-07-06T13:17:39;1.80;;;1.00;;
71187;SDS011;58893;53.130;8.158;2022-07-06T13:20:05;1.10;;;0.80;;
71187;SDS011;58893;53.130;8.158;2022-07-06T13:22:33;1.77;;;0.60;;
71187;SDS011;58893;53.130;8.158;2022-07-06T13:24:58;4.20;;;1.73;;
71187;SDS011;58893;53.130;8.158;2022-07-06T13:27:24;4.73;;;1.00;;
71187;SDS011;58893;53.130;8.158;2022-07-06T13:29:50;2.77;;;1.60;;
71187;SDS011;58893;53.130;8.158;2022-07-06T13:32:16;3.27;;;1.07;;
71187;SDS011;58893;53.130;8.158;2022-07-06T13:34:41;7.40;;;1.17;;
71187;SDS011;58893;53.130;8.158;2022-07-06T13:37:07;2.73;;;0.70;;
71187;SDS011;58893;53.130;8.158;2022-07-06T13:39:33;5.93;;;1.77;;
71187;SDS011;58893;53.130;8.158;2022-07-06T13:41:58;2.83;;;1.20;;
71187;SDS011;58893;53.130;8.158;2022-07-06T13:44:24;0.90;;;0.80;;
71187;SDS011;58893;53.130;8.158;2022-07-06T13:46:50;8.30;;;1.27;;
71187;SDS011;58893;53.130;8.158;2022-07-06T13:49:16;2.47;;;0.90;;
71187;SDS011;58893;53.130;8.158;2022-07-06T13:51:42;2.10;;;0.93;;
71187;SDS011;58893;53.130;8.158;2022-07-06T13:54:08;4.60;;;0.80;;
71187;SDS011;58893;53.130;8.158;2022-07-06T13:56:34;5.20;;;1.20;;
71187;SDS011;58893;53.130;8.158;2022-07-06T13:59:01;2.93;;;0.90;;
71187;SDS011;58893;53.130;8.158;2022-07-06T14:01:27;1.90;;;0.70;;
71187;SDS011;58893;53.130;8.158;2022-07-06T14:03:52;4.50;;;1.00;;
71187;SDS011;58893;53.130;8.158;2022-07-06T14:06:18;1.70;;;0.97;;
71187;SDS011;58893;53.130;8.158;2022-07-06T14:08:44;8.47;;;1.30;;
71187;SDS011;58893;53.130;8.158;2022-07-06T14:11:10;1.73;;;0.80;;
71187;SDS011;58893;53.130;8.158;2022-07-06T14:13:36;0.80;;;0.70;;
71187;SDS011;58893;53.130;8.158;2022-07-06T14:16:03;2.00;;;0.80;;
71187;SDS011;58893;53.130;8.158;2022-07-06T14:18:29;10.60;;;1.07;;
71187;SDS011;58893;53.130;8.158;2022-07-06T14:20:56;4.20;;;0.90;;
71187;SDS011;58893;53.130;8.158;2022-07-06T14:23:21;1.90;;;1.00;;
71187;SDS011;58893;53.130;8.158;2022-07-06T14:25:48;4.63;;;0.87;;
71187;SDS011;58893;53.130;8.158;2022-07-06T14:28:14;13.10;;;1.07;;
71187;SDS011;58893;53.130;8.158;2022-07-06T14:30:41;5.27;;;0.80;;
71187;SDS011;58893;53.130;8.158;2022-07-06T14:33:09;1.10;;;0.80;;
71187;SDS011;58893;53.130;8.158;2022-07-06T14:35:40;7.13;;;1.10;;
71187;SDS011;58893;53.130;8.158;2022-07-06T14:38:12;16.93;;;1.40;;
71187;SDS011;58893;53.130;8.158;2022-07-06T14:40:37;9.13;;;1.87;;
71187;SDS011;58893;53.130;8.158;2022-07-06T14:43:03;4.00;;;0.80;;
71187;SDS011;58893;53.130;8.158;2022-07-06T14:45:29;2.30;;;1.00;;
71187;SDS011;58893;53.130;8.158;2022-07-06T14:47:55;2.10;;;0.87;;
71187;SDS011;58893;53.130;8.158;2022-07-06T14:50:21;3.60;;;1.00;;
71187;SDS011;58893;53.130;8.158;2022-07-06T14:52:50;3.10;;;1.13;;
71187;SDS011;58893;53.130;8.158;2022-07-06T14:55:20;3.57;;;1.10;;
71187;SDS011;58893;53.130;8.158;2022-07-06T14:57:46;4.27;;;1.60;;